BOG weather

El Dorado International Airport
Bogota, Cundinamarca Department, Colombia

Public forecast

Using degrees Celsius for public forecast. Weather courtesy of forecast.io.

METAR (pilot weather report)

Retrieved 2019/05/20 17:00 UTC (6 minutes ago):

SKBO 201700Z 10005KT 020V190 9999 BKN017 BKN080 17/09 A3037NOSIG

TAF (pilot weather forecast)

Retrieved 2019/05/20 12:39 UTC (4 hours ago):

TAF SKBO 201030Z 2012/2112 VRB02KT 9999 SCT015 SCT080 TEMPO 2012/2014 7000 VCSH SCT010 BKN070 BECMG 2014/2016 15012KT TEMPO 2019/2022 7000 DZ SCT015TCU BKN080 BECMG 2102/2104 VRB02KT TEMPO 2104/2109 6000 DZ SCT010 BKN070 TX20/2018Z TN10/2111Z